sensor_id;sensor_type;location;lat;lon;timestamp;temperature;humidity
44215;DHT22;29884;47.450;19.124;2023-06-24T00:01:35;19.20;99.90
44215;DHT22;29884;47.450;19.124;2023-06-24T00:04:02;19.20;99.90
44215;DHT22;29884;47.450;19.124;2023-06-24T00:06:27;19.20;99.90
44215;DHT22;29884;47.450;19.124;2023-06-24T00:08:53;19.30;99.90
44215;DHT22;29884;47.450;19.124;2023-06-24T00:11:30;19.20;99.90
44215;DHT22;29884;47.450;19.124;2023-06-24T00:13:56;19.30;99.90
44215;DHT22;29884;47.450;19.124;2023-06-24T00:16:22;19.30;99.90
44215;DHT22;29884;47.450;19.124;2023-06-24T00:18:51;19.30;99.90
44215;DHT22;29884;47.450;19.124;2023-06-24T00:21:18;19.30;99.90
44215;DHT22;29884;47.450;19.124;2023-06-24T00:23:44;19.30;99.90
44215;DHT22;29884;47.450;19.124;2023-06-24T00:26:10;19.20;99.90
44215;DHT22;29884;47.450;19.124;2023-06-24T00:28:36;19.30;99.90
44215;DHT22;29884;47.450;19.124;2023-06-24T00:31:02;19.30;99.90
44215;DHT22;29884;47.450;19.124;2023-06-24T00:33:29;19.30;99.90
44215;DHT22;29884;47.450;19.124;2023-06-24T00:35:54;19.40;99.90
44215;DHT22;29884;47.450;19.124;2023-06-24T00:38:22;19.40;99.90
44215;DHT22;29884;47.450;19.124;2023-06-24T00:40:48;19.40;99.90
44215;DHT22;29884;47.450;19.124;2023-06-24T00:43:14;19.40;99.90
44215;DHT22;29884;47.450;19.124;2023-06-24T00:45:39;19.40;99.90
44215;DHT22;29884;47.450;19.124;2023-06-24T00:48:06;19.40;99.90
44215;DHT22;29884;47.450;19.124;2023-06-24T00:50:32;19.40;99.90
44215;DHT22;29884;47.450;19.124;2023-06-24T00:52:57;19.40;99.90
44215;DHT22;29884;47.450;19.124;2023-06-24T00:55:23;19.30;99.90
44215;DHT22;29884;47.450;19.124;2023-06-24T00:57:51;19.30;99.90
44215;DHT22;29884;47.450;19.124;2023-06-24T01:00:18;19.40;99.90
44215;DHT22;29884;47.450;19.124;2023-06-24T01:02:47;19.30;99.90
44215;DHT22;29884;47.450;19.124;2023-06-24T01:05:13;19.30;99.90
44215;DHT22;29884;47.450;19.124;2023-06-24T01:07:40;19.30;99.90
44215;DHT22;29884;47.450;19.124;2023-06-24T01:10:08;19.30;99.90
44215;DHT22;29884;47.450;19.124;2023-06-24T01:12:35;19.30;99.90
44215;DHT22;29884;47.450;19.124;2023-06-24T01:15:02;19.30;99.90
44215;DHT22;29884;47.450;19.124;2023-06-24T01:20:23;19.30;99.90
44215;DHT22;29884;47.450;19.124;2023-06-24T01:23:18;19.30;99.90
44215;DHT22;29884;47.450;19.124;2023-06-24T01:26:00;19.20;99.90
44215;DHT22;29884;47.450;19.124;2023-06-24T01:36:49;19.20;99.90
44215;DHT22;29884;47.450;19.124;2023-06-24T01:39:17;19.20;99.90
44215;DHT22;29884;47.450;19.124;2023-06-24T01:42:00;19.10;99.90
44215;DHT22;29884;47.450;19.124;2023-06-24T01:44:27;19.10;99.90
44215;DHT22;29884;47.450;19.124;2023-06-24T01:46:57;19.10;99.90
44215;DHT22;29884;47.450;19.124;2023-06-24T01:49:23;19.10;99.90
44215;DHT22;29884;47.450;19.124;2023-06-24T01:51:54;19.20;99.90
44215;DHT22;29884;47.450;19.124;2023-06-24T01:54:22;19.20;99.90
44215;DHT22;29884;47.450;19.124;2023-06-24T01:56:50;19.20;99.90
44215;DHT22;29884;47.450;19.124;2023-06-24T01:59:18;19.10;99.90
44215;DHT22;29884;47.450;19.124;2023-06-24T02:01:46;19.10;99.90
44215;DHT22;29884;47.450;19.124;2023-06-24T02:04:13;19.10;99.90
44215;DHT22;29884;47.450;19.124;2023-06-24T02:06:41;19.10;99.90
44215;DHT22;29884;47.450;19.124;2023-06-24T02:09:09;19.20;99.90
44215;DHT22;29884;47.450;19.124;2023-06-24T02:11:36;19.10;99.90
44215;DHT22;29884;47.450;19.124;2023-06-24T02:14:04;19.10;99.90
44215;DHT22;29884;47.450;19.124;2023-06-24T02:16:31;19.00;99.90
44215;DHT22;29884;47.450;19.124;2023-06-24T02:18:58;19.00;99.90
44215;DHT22;29884;47.450;19.124;2023-06-24T02:21:26;19.00;99.90
44215;DHT22;29884;47.450;19.124;2023-06-24T02:23:52;18.90;99.90
44215;DHT22;29884;47.450;19.124;2023-06-24T02:26:19;19.00;99.90
44215;DHT22;29884;47.450;19.124;2023-06-24T02:28:45;18.90;99.90
44215;DHT22;29884;47.450;19.124;2023-06-24T02:31:12;19.00;99.90
44215;DHT22;29884;47.450;19.124;2023-06-24T02:33:38;19.00;99.90
44215;DHT22;29884;47.450;19.124;2023-06-24T02:36:04;18.90;99.90
44215;DHT22;29884;47.450;19.124;2023-06-24T02:38:30;19.00;99.90
44215;DHT22;29884;47.450;19.124;2023-06-24T02:40:56;18.90;99.90
44215;DHT22;29884;47.450;19.124;2023-06-24T02:43:22;18.90;99.90
44215;DHT22;29884;47.450;19.124;2023-06-24T02:45:48;18.90;99.90
44215;DHT22;29884;47.450;19.124;2023-06-24T02:48:16;18.80;99.90
44215;DHT22;29884;47.450;19.124;2023-06-24T02:50:43;18.90;99.90
44215;DHT22;29884;47.450;19.124;2023-06-24T02:53:14;18.80;99.90
44215;DHT22;29884;47.450;19.124;2023-06-24T02:55:41;18.90;99.90
44215;DHT22;29884;47.450;19.124;2023-06-24T02:58:08;18.80;99.90
44215;DHT22;29884;47.450;19.124;2023-06-24T03:00:35;18.80;99.90
44215;DHT22;29884;47.450;19.124;2023-06-24T03:03:04;18.80;99.90
44215;DHT22;29884;47.450;19.124;2023-06-24T03:05:31;18.90;99.90
44215;DHT22;29884;47.450;19.124;2023-06-24T03:07:58;18.90;99.90
44215;DHT22;29884;47.450;19.124;2023-06-24T03:10:27;18.90;99.90
44215;DHT22;29884;47.450;19.124;2023-06-24T03:12:53;18.90;99.90
44215;DHT22;29884;47.450;19.124;2023-06-24T03:15:19;18.90;99.90
44215;DHT22;29884;47.450;19.124;2023-06-24T03:17:45;18.80;99.90
44215;DHT22;29884;47.450;19.124;2023-06-24T03:20:11;18.80;99.90
44215;DHT22;29884;47.450;19.124;2023-06-24T03:22:37;18.80;99.90
44215;DHT22;29884;47.450;19.124;2023-06-24T03:25:03;18.80;99.90
44215;DHT22;29884;47.450;19.124;2023-06-24T03:27:29;18.80;99.90
44215;DHT22;29884;47.450;19.124;2023-06-24T03:29:56;18.70;99.90
44215;DHT22;29884;47.450;19.124;2023-06-24T03:32:22;18.70;99.90
44215;DHT22;29884;47.450;19.124;2023-06-24T03:34:48;18.70;99.90
44215;DHT22;29884;47.450;19.124;2023-06-24T03:37:14;18.70;99.90
44215;DHT22;29884;47.450;19.124;2023-06-24T03:39:40;18.70;99.90
44215;DHT22;29884;47.450;19.124;2023-06-24T03:42:06;18.80;99.90
44215;DHT22;29884;47.450;19.124;2023-06-24T03:44:32;18.80;99.90
44215;DHT22;29884;47.450;19.124;2023-06-24T03:46:58;18.80;99.90
44215;DHT22;29884;47.450;19.124;2023-06-24T03:49:23;18.80;99.90
44215;DHT22;29884;47.450;19.124;2023-06-24T03:51:49;18.80;99.90
44215;DHT22;29884;47.450;19.124;2023-06-24T03:54:15;18.80;99.90
44215;DHT22;29884;47.450;19.124;2023-06-24T03:56:40;18.80;99.90
44215;DHT22;29884;47.450;19.124;2023-06-24T03:59:06;18.80;99.90
44215;DHT22;29884;47.450;19.124;2023-06-24T04:01:33;18.80;99.90
44215;DHT22;29884;47.450;19.124;2023-06-24T04:03:59;18.80;99.90
44215;DHT22;29884;47.450;19.124;2023-06-24T04:06:24;18.80;99.90
44215;DHT22;29884;47.450;19.124;2023-06-24T04:08:50;18.80;99.90
44215;DHT22;29884;47.450;19.124;2023-06-24T04:11:17;18.90;99.90
44215;DHT22;29884;47.450;19.124;2023-06-24T04:13:44;18.90;99.90
44215;DHT22;29884;47.450;19.124;2023-06-24T04:16:10;18.90;99.90
44215;DHT22;29884;47.450;19.124;2023-06-24T04:18:36;18.90;99.90
44215;DHT22;29884;47.450;19.124;2023-06-24T04:21:05;18.90;99.90
44215;DHT22;29884;47.450;19.124;2023-06-24T04:23:32;19.00;99.90
44215;DHT22;29884;47.450;19.124;2023-06-24T04:25:58;19.00;99.90
44215;DHT22;29884;47.450;19.124;2023-06-24T04:28:24;19.00;99.90
44215;DHT22;29884;47.450;19.124;2023-06-24T04:30:50;19.10;99.90
44215;DHT22;29884;47.450;19.124;2023-06-24T04:33:15;19.10;99.90
44215;DHT22;29884;47.450;19.124;2023-06-24T04:35:41;19.10;99.90
44215;DHT22;29884;47.450;19.124;2023-06-24T04:38:07;19.10;99.90
44215;DHT22;29884;47.450;19.124;2023-06-24T04:40:32;19.10;99.90
44215;DHT22;29884;47.450;19.124;2023-06-24T04:42:58;19.20;99.90
44215;DHT22;29884;47.450;19.124;2023-06-24T04:45:24;19.20;99.90
44215;DHT22;29884;47.450;19.124;2023-06-24T04:47:50;19.20;99.90
44215;DHT22;29884;47.450;19.124;2023-06-24T04:50:17;19.30;99.90
44215;DHT22;29884;47.450;19.124;2023-06-24T04:52:43;19.30;99.90
44215;DHT22;29884;47.450;19.124;2023-06-24T04:55:10;19.40;99.90
44215;DHT22;29884;47.450;19.124;2023-06-24T04:57:36;19.40;99.90
44215;DHT22;29884;47.450;19.124;2023-06-24T05:00:02;19.40;99.90
44215;DHT22;29884;47.450;19.124;2023-06-24T05:02:27;19.40;99.90
44215;DHT22;29884;47.450;19.124;2023-06-24T05:04:54;19.40;99.90
44215;DHT22;29884;47.450;19.124;2023-06-24T05:07:19;19.50;99.90
44215;DHT22;29884;47.450;19.124;2023-06-24T05:09:46;19.60;99.90
44215;DHT22;29884;47.450;19.124;2023-06-24T05:12:12;19.60;99.90
44215;DHT22;29884;47.450;19.124;2023-06-24T05:14:38;19.70;99.90
44215;DHT22;29884;47.450;19.124;2023-06-24T05:17:04;19.80;99.90
44215;DHT22;29884;47.450;19.124;2023-06-24T05:19:30;19.80;99.90
44215;DHT22;29884;47.450;19.124;2023-06-24T05:21:55;19.80;99.90
44215;DHT22;29884;47.450;19.124;2023-06-24T05:24:21;19.80;99.90
44215;DHT22;29884;47.450;19.124;2023-06-24T05:26:49;19.80;99.90
44215;DHT22;29884;47.450;19.124;2023-06-24T05:29:15;19.90;99.90
44215;DHT22;29884;47.450;19.124;2023-06-24T05:31:41;19.90;99.90
44215;DHT22;29884;47.450;19.124;2023-06-24T05:34:07;19.90;99.90
44215;DHT22;29884;47.450;19.124;2023-06-24T05:36:34;19.90;99.90
44215;DHT22;29884;47.450;19.124;2023-06-24T05:39:00;19.90;99.90
44215;DHT22;29884;47.450;19.124;2023-06-24T05:41:26;20.00;99.90
44215;DHT22;29884;47.450;19.124;2023-06-24T05:44:05;20.00;99.90
44215;DHT22;29884;47.450;19.124;2023-06-24T05:46:31;20.10;99.90
44215;DHT22;29884;47.450;19.124;2023-06-24T05:48:57;20.20;99.90
44215;DHT22;29884;47.450;19.124;2023-06-24T05:51:23;20.20;99.90
44215;DHT22;29884;47.450;19.124;2023-06-24T05:53:49;20.20;99.90
44215;DHT22;29884;47.450;19.124;2023-06-24T05:56:15;20.40;99.90
44215;DHT22;29884;47.450;19.124;2023-06-24T05:58:41;20.40;99.90
44215;DHT22;29884;47.450;19.124;2023-06-24T06:01:08;20.40;99.90
44215;DHT22;29884;47.450;19.124;2023-06-24T06:03:34;20.40;99.90
44215;DHT22;29884;47.450;19.124;2023-06-24T06:06:00;20.40;99.90
44215;DHT22;29884;47.450;19.124;2023-06-24T06:08:26;20.40;99.90
44215;DHT22;29884;47.450;19.124;2023-06-24T06:10:51;20.40;99.90
44215;DHT22;29884;47.450;19.124;2023-06-24T06:13:17;20.50;99.90
44215;DHT22;29884;47.450;19.124;2023-06-24T06:15:43;20.50;99.90
44215;DHT22;29884;47.450;19.124;2023-06-24T06:18:08;20.50;99.90
44215;DHT22;29884;47.450;19.124;2023-06-24T06:20:34;20.60;99.90
44215;DHT22;29884;47.450;19.124;2023-06-24T06:23:00;20.60;99.90
44215;DHT22;29884;47.450;19.124;2023-06-24T06:25:26;20.60;99.90
44215;DHT22;29884;47.450;19.124;2023-06-24T06:27:51;20.50;99.90
44215;DHT22;29884;47.450;19.124;2023-06-24T06:30:17;20.50;99.90
44215;DHT22;29884;47.450;19.124;2023-06-24T06:32:43;20.40;99.90
44215;DHT22;29884;47.450;19.124;2023-06-24T06:35:09;20.40;99.90
44215;DHT22;29884;47.450;19.124;2023-06-24T06:37:35;20.50;99.90
44215;DHT22;29884;47.450;19.124;2023-06-24T06:40:01;20.50;99.90
44215;DHT22;29884;47.450;19.124;2023-06-24T06:42:27;20.50;99.90
44215;DHT22;29884;47.450;19.124;2023-06-24T06:44:52;20.70;99.90
44215;DHT22;29884;47.450;19.124;2023-06-24T06:47:18;20.80;99.90
44215;DHT22;29884;47.450;19.124;2023-06-24T06:49:44;20.80;99.90
44215;DHT22;29884;47.450;19.124;2023-06-24T06:52:09;20.90;99.90
44215;DHT22;29884;47.450;19.124;2023-06-24T06:54:35;21.00;99.90
44215;DHT22;29884;47.450;19.124;2023-06-24T06:57:02;21.20;99.90
44215;DHT22;29884;47.450;19.124;2023-06-24T06:59:32;21.20;99.90
44215;DHT22;29884;47.450;19.124;2023-06-24T07:01:58;21.10;99.90
44215;DHT22;29884;47.450;19.124;2023-06-24T07:04:23;21.30;99.90
44215;DHT22;29884;47.450;19.124;2023-06-24T07:06:49;21.40;99.90
44215;DHT22;29884;47.450;19.124;2023-06-24T07:09:15;21.40;99.90
44215;DHT22;29884;47.450;19.124;2023-06-24T07:11:42;21.50;99.90
44215;DHT22;29884;47.450;19.124;2023-06-24T07:14:07;21.60;99.90
44215;DHT22;29884;47.450;19.124;2023-06-24T07:16:33;21.40;99.90
44215;DHT22;29884;47.450;19.124;2023-06-24T07:18:59;21.50;99.90
44215;DHT22;29884;47.450;19.124;2023-06-24T07:21:25;21.60;99.90
44215;DHT22;29884;47.450;19.124;2023-06-24T07:23:50;21.60;99.90
44215;DHT22;29884;47.450;19.124;2023-06-24T07:26:16;21.70;99.90
44215;DHT22;29884;47.450;19.124;2023-06-24T07:28:42;21.80;99.90
44215;DHT22;29884;47.450;19.124;2023-06-24T07:31:08;21.90;99.90
44215;DHT22;29884;47.450;19.124;2023-06-24T07:33:33;22.10;99.90
44215;DHT22;29884;47.450;19.124;2023-06-24T07:35:59;22.00;99.90
44215;DHT22;29884;47.450;19.124;2023-06-24T07:38:25;22.00;99.90
44215;DHT22;29884;47.450;19.124;2023-06-24T07:40:50;22.10;99.90
44215;DHT22;29884;47.450;19.124;2023-06-24T07:43:16;22.20;99.90
44215;DHT22;29884;47.450;19.124;2023-06-24T07:45:42;22.20;99.90
44215;DHT22;29884;47.450;19.124;2023-06-24T07:48:08;22.40;99.90
44215;DHT22;29884;47.450;19.124;2023-06-24T07:50:34;22.50;99.90
44215;DHT22;29884;47.450;19.124;2023-06-24T07:53:02;22.60;99.90
44215;DHT22;29884;47.450;19.124;2023-06-24T07:55:28;22.50;99.90
44215;DHT22;29884;47.450;19.124;2023-06-24T07:57:53;22.30;99.90
44215;DHT22;29884;47.450;19.124;2023-06-24T08:00:19;22.50;99.90
44215;DHT22;29884;47.450;19.124;2023-06-24T08:02:45;22.50;99.90
44215;DHT22;29884;47.450;19.124;2023-06-24T08:05:11;22.50;99.90
44215;DHT22;29884;47.450;19.124;2023-06-24T08:07:37;22.60;99.90
44215;DHT22;29884;47.450;19.124;2023-06-24T08:10:04;22.50;99.90
44215;DHT22;29884;47.450;19.124;2023-06-24T08:12:31;22.60;99.90
44215;DHT22;29884;47.450;19.124;2023-06-24T08:14:56;22.80;99.90
44215;DHT22;29884;47.450;19.124;2023-06-24T08:17:22;23.00;99.90
44215;DHT22;29884;47.450;19.124;2023-06-24T08:19:48;23.10;99.90
44215;DHT22;29884;47.450;19.124;2023-06-24T08:22:14;23.10;99.90
44215;DHT22;29884;47.450;19.124;2023-06-24T08:24:40;23.40;99.90
44215;DHT22;29884;47.450;19.124;2023-06-24T08:27:05;23.30;99.90
44215;DHT22;29884;47.450;19.124;2023-06-24T08:29:31;23.50;99.90
44215;DHT22;29884;47.450;19.124;2023-06-24T08:31:57;23.40;99.90
44215;DHT22;29884;47.450;19.124;2023-06-24T08:34:26;23.60;99.90
44215;DHT22;29884;47.450;19.124;2023-06-24T08:36:52;23.70;99.90
44215;DHT22;29884;47.450;19.124;2023-06-24T08:39:17;23.80;99.90
44215;DHT22;29884;47.450;19.124;2023-06-24T08:41:43;23.90;99.90
44215;DHT22;29884;47.450;19.124;2023-06-24T08:44:09;24.20;99.90
44215;DHT22;29884;47.450;19.124;2023-06-24T08:46:35;24.20;99.90
44215;DHT22;29884;47.450;19.124;2023-06-24T08:51:53;24.50;99.90
44215;DHT22;29884;47.450;19.124;2023-06-24T08:54:20;24.80;99.90
44215;DHT22;29884;47.450;19.124;2023-06-24T08:56:47;24.50;99.90
44215;DHT22;29884;47.450;19.124;2023-06-24T08:59:12;24.30;99.90
44215;DHT22;29884;47.450;19.124;2023-06-24T09:01:38;24.10;99.90
44215;DHT22;29884;47.450;19.124;2023-06-24T09:04:04;24.00;99.90
44215;DHT22;29884;47.450;19.124;2023-06-24T09:06:31;23.80;99.90
44215;DHT22;29884;47.450;19.124;2023-06-24T09:08:57;23.70;99.90
44215;DHT22;29884;47.450;19.124;2023-06-24T09:11:24;23.70;99.90
44215;DHT22;29884;47.450;19.124;2023-06-24T09:13:55;23.70;99.90
44215;DHT22;29884;47.450;19.124;2023-06-24T09:16:21;23.70;99.90
44215;DHT22;29884;47.450;19.124;2023-06-24T09:18:50;23.60;99.90
44215;DHT22;29884;47.450;19.124;2023-06-24T09:21:29;23.50;99.90
44215;DHT22;29884;47.450;19.124;2023-06-24T09:23:57;23.50;99.90
44215;DHT22;29884;47.450;19.124;2023-06-24T09:26:27;23.70;99.90
44215;DHT22;29884;47.450;19.124;2023-06-24T09:28:53;23.80;99.90
44215;DHT22;29884;47.450;19.124;2023-06-24T09:31:23;23.80;99.90
44215;DHT22;29884;47.450;19.124;2023-06-24T09:33:49;24.00;99.90
44215;DHT22;29884;47.450;19.124;2023-06-24T09:36:15;24.10;99.90
44215;DHT22;29884;47.450;19.124;2023-06-24T09:38:44;24.40;99.90
44215;DHT22;29884;47.450;19.124;2023-06-24T09:41:10;24.50;99.90
44215;DHT22;29884;47.450;19.124;2023-06-24T09:43:37;24.40;99.90
44215;DHT22;29884;47.450;19.124;2023-06-24T09:46:05;24.20;99.90
44215;DHT22;29884;47.450;19.124;2023-06-24T09:48:32;24.20;99.90
44215;DHT22;29884;47.450;19.124;2023-06-24T09:51:00;24.20;99.90
44215;DHT22;29884;47.450;19.124;2023-06-24T09:53:35;24.10;99.90
44215;DHT22;29884;47.450;19.124;2023-06-24T09:56:03;24.00;99.90
44215;DHT22;29884;47.450;19.124;2023-06-24T09:58:31;24.20;99.90
44215;DHT22;29884;47.450;19.124;2023-06-24T10:01:02;24.10;99.90
44215;DHT22;29884;47.450;19.124;2023-06-24T10:03:29;24.00;99.90
44215;DHT22;29884;47.450;19.124;2023-06-24T10:05:57;24.10;99.90
44215;DHT22;29884;47.450;19.124;2023-06-24T10:08:23;24.20;99.90
44215;DHT22;29884;47.450;19.124;2023-06-24T10:10:49;24.20;99.90
44215;DHT22;29884;47.450;19.124;2023-06-24T10:13:15;24.40;99.90
44215;DHT22;29884;47.450;19.124;2023-06-24T10:15:41;25.00;99.90
44215;DHT22;29884;47.450;19.124;2023-06-24T10:18:43;25.60;99.90
44215;DHT22;29884;47.450;19.124;2023-06-24T10:21:09;26.10;99.90
44215;DHT22;29884;47.450;19.124;2023-06-24T10:26:25;27.00;99.90
44215;DHT22;29884;47.450;19.124;2023-06-24T10:34:32;26.40;99.90
44215;DHT22;29884;47.450;19.124;2023-06-24T10:37:04;25.80;99.90
44215;DHT22;29884;47.450;19.124;2023-06-24T10:44:50;26.70;99.90
44215;DHT22;29884;47.450;19.124;2023-06-24T10:47:19;26.30;99.90
44215;DHT22;29884;47.450;19.124;2023-06-24T10:49:45;26.70;99.90
44215;DHT22;29884;47.450;19.124;2023-06-24T10:52:12;27.10;99.90
44215;DHT22;29884;47.450;19.124;2023-06-24T10:54:41;26.80;99.90
44215;DHT22;29884;47.450;19.124;2023-06-24T10:57:10;26.70;99.90
44215;DHT22;29884;47.450;19.124;2023-06-24T10:59:40;26.70;99.90
44215;DHT22;29884;47.450;19.124;2023-06-24T11:02:09;27.00;99.90
44215;DHT22;29884;47.450;19.124;2023-06-24T11:04:51;27.50;99.90
44215;DHT22;29884;47.450;19.124;2023-06-24T11:07:18;27.30;99.90
44215;DHT22;29884;47.450;19.124;2023-06-24T11:09:55;27.40;99.90
44215;DHT22;29884;47.450;19.124;2023-06-24T11:12:34;27.10;99.90
44215;DHT22;29884;47.450;19.124;2023-06-24T11:15:05;27.50;99.90
44215;DHT22;29884;47.450;19.124;2023-06-24T11:17:33;27.10;99.90
44215;DHT22;29884;47.450;19.124;2023-06-24T11:19:58;26.80;99.90
44215;DHT22;29884;47.450;19.124;2023-06-24T11:22:25;26.30;99.90
44215;DHT22;29884;47.450;19.124;2023-06-24T11:24:51;26.10;99.90
44215;DHT22;29884;47.450;19.124;2023-06-24T11:27:24;26.60;99.90
44215;DHT22;29884;47.450;19.124;2023-06-24T11:29:51;27.20;99.90
44215;DHT22;29884;47.450;19.124;2023-06-24T11:32:17;27.70;99.90
44215;DHT22;29884;47.450;19.124;2023-06-24T11:34:43;27.50;99.90
44215;DHT22;29884;47.450;19.124;2023-06-24T11:37:13;26.80;99.90
44215;DHT22;29884;47.450;19.124;2023-06-24T11:39:39;26.60;99.90
44215;DHT22;29884;47.450;19.124;2023-06-24T11:42:09;27.00;99.90
44215;DHT22;29884;47.450;19.124;2023-06-24T11:44:36;27.20;99.90
44215;DHT22;29884;47.450;19.124;2023-06-24T11:47:06;27.50;99.90
44215;DHT22;29884;47.450;19.124;2023-06-24T11:49:32;27.80;99.90
44215;DHT22;29884;47.450;19.124;2023-06-24T11:51:57;27.90;99.90
44215;DHT22;29884;47.450;19.124;2023-06-24T11:54:23;28.30;99.90
44215;DHT22;29884;47.450;19.124;2023-06-24T11:56:51;28.40;99.00
44215;DHT22;29884;47.450;19.124;2023-06-24T11:59:22;28.00;98.30
44215;DHT22;29884;47.450;19.124;2023-06-24T12:01:59;27.60;99.50
44215;DHT22;29884;47.450;19.124;2023-06-24T12:04:32;27.20;99.90
44215;DHT22;29884;47.450;19.124;2023-06-24T12:06:59;27.30;98.20
44215;DHT22;29884;47.450;19.124;2023-06-24T12:09:25;27.80;99.20
44215;DHT22;29884;47.450;19.124;2023-06-24T12:11:52;28.10;99.50
44215;DHT22;29884;47.450;19.124;2023-06-24T12:14:18;27.70;99.20
44215;DHT22;29884;47.450;19.124;2023-06-24T12:16:44;27.30;99.40
44215;DHT22;29884;47.450;19.124;2023-06-24T12:19:10;26.90;99.90
44215;DHT22;29884;47.450;19.124;2023-06-24T12:21:37;26.80;99.90
44215;DHT22;29884;47.450;19.124;2023-06-24T12:24:04;27.60;99.90
44215;DHT22;29884;47.450;19.124;2023-06-24T12:26:30;27.70;99.80
44215;DHT22;29884;47.450;19.124;2023-06-24T12:28:56;27.30;99.90
44215;DHT22;29884;47.450;19.124;2023-06-24T12:31:23;27.00;99.90
44215;DHT22;29884;47.450;19.124;2023-06-24T12:33:51;26.70;99.90
44215;DHT22;29884;47.450;19.124;2023-06-24T12:36:17;27.00;99.90
44215;DHT22;29884;47.450;19.124;2023-06-24T12:38:43;27.40;99.90
44215;DHT22;29884;47.450;19.124;2023-06-24T12:41:09;27.00;99.90
44215;DHT22;29884;47.450;19.124;2023-06-24T12:43:35;26.80;99.90
44215;DHT22;29884;47.450;19.124;2023-06-24T12:46:00;26.70;99.90
44215;DHT22;29884;47.450;19.124;2023-06-24T12:48:26;26.60;99.90
44215;DHT22;29884;47.450;19.124;2023-06-24T12:50:52;26.70;99.90
44215;DHT22;29884;47.450;19.124;2023-06-24T12:53:21;27.30;99.90
44215;DHT22;29884;47.450;19.124;2023-06-24T12:55:47;27.80;99.90
44215;DHT22;29884;47.450;19.124;2023-06-24T12:58:14;28.10;99.90
44215;DHT22;29884;47.450;19.124;2023-06-24T13:00:40;28.00;99.90
44215;DHT22;29884;47.450;19.124;2023-06-24T13:03:06;28.20;99.90
44215;DHT22;29884;47.450;19.124;2023-06-24T13:05:32;28.50;99.40
44215;DHT22;29884;47.450;19.124;2023-06-24T13:07:57;28.60;98.40
44215;DHT22;29884;47.450;19.124;2023-06-24T13:10:23;28.00;98.40
44215;DHT22;29884;47.450;19.124;2023-06-24T13:12:49;27.90;98.90
44215;DHT22;29884;47.450;19.124;2023-06-24T13:15:15;27.70;99.70
44215;DHT22;29884;47.450;19.124;2023-06-24T13:17:41;27.60;99.90
44215;DHT22;29884;47.450;19.124;2023-06-24T13:20:07;27.30;99.90
44215;DHT22;29884;47.450;19.124;2023-06-24T13:22:33;27.20;99.90
44215;DHT22;29884;47.450;19.124;2023-06-24T13:24:59;27.70;99.90
44215;DHT22;29884;47.450;19.124;2023-06-24T13:27:25;27.50;99.90
44215;DHT22;29884;47.450;19.124;2023-06-24T13:29:51;27.10;99.90
44215;DHT22;29884;47.450;19.124;2023-06-24T13:32:17;26.90;99.90
44215;DHT22;29884;47.450;19.124;2023-06-24T13:34:42;26.70;99.90
44215;DHT22;29884;47.450;19.124;2023-06-24T13:37:08;26.60;99.90
44215;DHT22;29884;47.450;19.124;2023-06-24T13:39:34;26.50;99.90
44215;DHT22;29884;47.450;19.124;2023-06-24T13:42:00;26.50;99.90
44215;DHT22;29884;47.450;19.124;2023-06-24T13:44:26;26.60;99.90
44215;DHT22;29884;47.450;19.124;2023-06-24T13:46:51;27.10;99.90
44215;DHT22;29884;47.450;19.124;2023-06-24T13:49:19;27.60;99.90
44215;DHT22;29884;47.450;19.124;2023-06-24T13:51:45;27.60;99.90
44215;DHT22;29884;47.450;19.124;2023-06-24T13:54:10;27.20;99.90
44215;DHT22;29884;47.450;19.124;2023-06-24T13:56:36;26.80;99.90
44215;DHT22;29884;47.450;19.124;2023-06-24T13:59:02;26.80;99.90
44215;DHT22;29884;47.450;19.124;2023-06-24T14:01:28;26.60;99.90
44215;DHT22;29884;47.450;19.124;2023-06-24T14:03:54;26.50;99.90
44215;DHT22;29884;47.450;19.124;2023-06-24T14:06:22;26.30;99.90
44215;DHT22;29884;47.450;19.124;2023-06-24T14:08:49;26.80;99.90
44215;DHT22;29884;47.450;19.124;2023-06-24T14:11:15;27.20;99.90
44215;DHT22;29884;47.450;19.124;2023-06-24T14:13:41;27.20;99.90
44215;DHT22;29884;47.450;19.124;2023-06-24T14:16:08;27.30;99.90
44215;DHT22;29884;47.450;19.124;2023-06-24T14:18:34;27.10;99.90
44215;DHT22;29884;47.450;19.124;2023-06-24T14:21:01;26.70;99.90
44215;DHT22;29884;47.450;19.124;2023-06-24T14:23:28;26.60;99.90
44215;DHT22;29884;47.450;19.124;2023-06-24T14:25:54;26.60;99.90
44215;DHT22;29884;47.450;19.124;2023-06-24T14:28:20;26.50;99.90
44215;DHT22;29884;47.450;19.124;2023-06-24T14:30:46;26.50;99.90
44215;DHT22;29884;47.450;19.124;2023-06-24T14:33:12;26.90;99.90
44215;DHT22;29884;47.450;19.124;2023-06-24T14:35:39;27.00;99.90
44215;DHT22;29884;47.450;19.124;2023-06-24T14:38:05;26.90;99.90
44215;DHT22;29884;47.450;19.124;2023-06-24T14:40:32;27.00;99.90
44215;DHT22;29884;47.450;19.124;2023-06-24T14:42:58;26.90;99.90
44215;DHT22;29884;47.450;19.124;2023-06-24T14:45:24;26.90;99.90
44215;DHT22;29884;47.450;19.124;2023-06-24T14:47:50;27.10;99.90
44215;DHT22;29884;47.450;19.124;2023-06-24T14:50:16;27.10;99.90
44215;DHT22;29884;47.450;19.124;2023-06-24T14:52:41;27.10;99.90
44215;DHT22;29884;47.450;19.124;2023-06-24T14:55:07;26.60;99.90
44215;DHT22;29884;47.450;19.124;2023-06-24T14:57:34;26.40;99.90
44215;DHT22;29884;47.450;19.124;2023-06-24T15:00:00;26.20;99.90
44215;DHT22;29884;47.450;19.124;2023-06-24T15:02:25;26.30;99.90
44215;DHT22;29884;47.450;19.124;2023-06-24T15:04:51;26.40;99.90
44215;DHT22;29884;47.450;19.124;2023-06-24T15:07:17;26.30;99.90
44215;DHT22;29884;47.450;19.124;2023-06-24T15:09:43;26.20;99.90
44215;DHT22;29884;47.450;19.124;2023-06-24T15:12:09;26.10;99.90
44215;DHT22;29884;47.450;19.124;2023-06-24T15:14:36;26.40;99.90
44215;DHT22;29884;47.450;19.124;2023-06-24T15:17:02;26.40;99.90
44215;DHT22;29884;47.450;19.124;2023-06-24T15:19:27;26.60;99.90
44215;DHT22;29884;47.450;19.124;2023-06-24T15:21:53;26.70;99.90
44215;DHT22;29884;47.450;19.124;2023-06-24T15:24:19;26.90;99.90
44215;DHT22;29884;47.450;19.124;2023-06-24T15:26:45;26.90;99.90
44215;DHT22;29884;47.450;19.124;2023-06-24T15:29:11;27.00;99.90
44215;DHT22;29884;47.450;19.124;2023-06-24T15:31:36;27.00;99.90
44215;DHT22;29884;47.450;19.124;2023-06-24T15:34:02;26.80;99.90
44215;DHT22;29884;47.450;19.124;2023-06-24T15:36:28;26.60;99.90
44215;DHT22;29884;47.450;19.124;2023-06-24T15:38:55;26.50;99.90
44215;DHT22;29884;47.450;19.124;2023-06-24T15:41:21;26.70;99.90